Search for airport 
image banner adimage banner adimage banner ad
image banner ad

PN51 - Summers Psnl Use

Located in Linesville, United States

ICAO - PN51, IATA -

Data provided by Airmate  

General information

Coordinates: N41°40'0" W80°24'59"
Elevation is 1040 feet MSL.
Magnetic variation is -08° East
View others Airports in Pennsylvania

Operational data

Special qualification required
Current time UTC:
Current local time:
Weather at : KGKJ - Port Meadville ( 17 km )
METAR: KGKJ 091353Z AUTO VRB03KT 10SM OVC070 06/02 A2999 RMK AO2 SLP164 T00560017
View NOTAMs / SUP AIP / TFR affecting this airport [VIEW]
Communications frequencies: [VIEW]

Runways:

Airport contact information

Address: Linesville United States

Satellite view of PN51